createdAt,value
2023-04-18T00:00:25.443Z,3.22
2023-04-18T00:02:52.353Z,3.50
2023-04-18T00:05:33.629Z,3.03
2023-04-18T00:08:07.544Z,3.30
2023-04-18T00:10:39.672Z,3.75
2023-04-18T00:13:09.719Z,3.25
2023-04-18T00:15:39.593Z,3.13
2023-04-18T00:18:18.056Z,2.90
2023-04-18T00:20:45.122Z,3.42
2023-04-18T00:23:34.666Z,3.25
2023-04-18T00:26:12.053Z,3.00
2023-04-18T00:28:45.029Z,3.25
2023-04-18T00:31:20.622Z,3.20
2023-04-18T00:33:49.865Z,3.33
2023-04-18T00:36:25.308Z,3.30
2023-04-18T00:39:00.788Z,3.13
2023-04-18T00:41:30.142Z,3.30
2023-04-18T00:43:57.023Z,2.90
2023-04-18T00:46:29.843Z,3.00
2023-04-18T00:49:08.065Z,3.20
2023-04-18T00:51:43.972Z,2.80
2023-04-18T00:54:24.826Z,3.03
2023-04-18T00:56:57.619Z,2.92
2023-04-18T00:59:24.682Z,2.90
2023-04-18T01:01:51.588Z,2.90
2023-04-18T01:04:29.247Z,2.83
2023-04-18T01:07:05.950Z,2.90
2023-04-18T01:09:41.444Z,2.72
2023-04-18T01:12:11.265Z,3.00
2023-04-18T01:17:27.641Z,2.72
2023-04-18T01:19:57.028Z,3.17
2023-04-18T01:22:26.369Z,2.78
2023-04-18T01:28:15.189Z,3.17
2023-04-18T01:30:55.185Z,2.88
2023-04-18T01:33:32.133Z,2.85
2023-04-18T01:36:13.465Z,2.72
2023-04-18T01:38:52.960Z,2.92
2023-04-18T01:41:19.724Z,2.90
2023-04-18T01:43:52.865Z,3.20
2023-04-18T01:46:27.197Z,2.80
2023-04-18T01:48:56.511Z,2.75
2023-04-18T01:51:26.454Z,2.88
2023-04-18T01:54:02.025Z,2.88
2023-04-18T01:56:34.166Z,2.92
2023-04-18T01:59:13.592Z,2.53
2023-04-18T02:01:49.323Z,3.10
2023-04-18T02:04:16.513Z,2.40
2023-04-18T02:06:43.375Z,2.67
2023-04-18T02:09:10.119Z,2.40
2023-04-18T02:11:50.378Z,2.72
2023-04-18T02:14:17.144Z,2.65
2023-04-18T02:16:43.942Z,2.50
2023-04-18T02:19:13.487Z,2.80
2023-04-18T02:21:40.198Z,2.70
2023-04-18T02:24:09.982Z,2.50
2023-04-18T02:26:39.724Z,2.90
2023-04-18T02:29:06.408Z,2.63
2023-04-18T02:31:33.484Z,2.70
2023-04-18T02:34:00.225Z,2.47
2023-04-18T02:36:29.912Z,2.55
2023-04-18T02:38:57.015Z,2.80
2023-04-18T02:41:23.792Z,2.65
2023-04-18T02:44:03.130Z,2.55
2023-04-18T02:46:37.999Z,2.50
2023-04-18T02:49:04.771Z,2.58
2023-04-18T02:51:31.714Z,3.00
2023-04-18T02:54:02.923Z,2.70
2023-04-18T02:56:29.808Z,2.67
2023-04-18T02:59:08.757Z,2.92
2023-04-18T03:01:45.205Z,2.83
2023-04-18T03:04:16.227Z,2.50
2023-04-18T03:06:48.692Z,3.03
2023-04-18T03:09:19.973Z,2.78
2023-04-18T03:11:49.428Z,3.03
2023-04-18T03:14:17.143Z,2.67
2023-04-18T03:16:44.007Z,2.83
2023-04-18T03:19:12.283Z,2.50
2023-04-18T03:21:41.275Z,2.70
2023-04-18T03:24:12.255Z,2.67
2023-04-18T03:26:47.133Z,2.50
2023-04-18T03:29:22.546Z,2.70
2023-04-18T03:31:49.360Z,2.50
2023-04-18T03:34:16.092Z,2.70
2023-04-18T03:36:49.225Z,2.90
2023-04-18T03:39:16.044Z,2.60
2023-04-18T03:41:42.818Z,2.80
2023-04-18T03:44:17.406Z,2.95
2023-04-18T03:46:44.600Z,2.67
2023-04-18T03:49:16.771Z,2.80
2023-04-18T03:51:46.590Z,2.63
2023-04-18T03:56:54.916Z,3.00
2023-04-18T03:59:28.720Z,3.10
2023-04-18T04:01:55.719Z,2.88
2023-04-18T04:04:22.736Z,3.17
2023-04-18T04:06:53.895Z,3.10
2023-04-18T04:09:20.686Z,3.10
2023-04-18T04:11:50.724Z,3.20
2023-04-18T04:14:23.408Z,2.75
2023-04-18T04:17:00.539Z,3.10
2023-04-18T04:19:27.244Z,3.42
2023-04-18T04:21:53.965Z,2.92
2023-04-18T04:24:20.700Z,3.10
2023-04-18T04:26:47.535Z,2.97
2023-04-18T04:29:15.206Z,3.17
2023-04-18T04:31:49.299Z,3.28
2023-04-18T04:34:16.232Z,3.33
2023-04-18T04:36:49.675Z,3.20
2023-04-18T04:39:16.704Z,3.25
2023-04-18T04:41:43.430Z,3.33
2023-04-18T04:44:10.123Z,3.13
2023-04-18T04:46:39.767Z,3.15
2023-04-18T04:49:06.692Z,3.10
2023-04-18T04:51:35.985Z,3.28
2023-04-18T04:54:06.345Z,3.30
2023-04-18T04:56:33.349Z,3.65
2023-04-18T04:59:02.929Z,3.17
2023-04-18T05:01:39.306Z,3.70
2023-04-18T05:04:06.283Z,3.47
2023-04-18T05:06:38.393Z,3.33
2023-04-18T05:09:09.972Z,3.10
2023-04-18T05:11:39.294Z,3.40
2023-04-18T05:14:06.098Z,3.22
2023-04-18T05:16:34.959Z,3.90
2023-04-18T05:19:01.839Z,3.70
2023-04-18T05:21:30.369Z,3.38
2023-04-18T05:24:00.548Z,3.05
2023-04-18T05:26:31.215Z,3.50
2023-04-18T05:29:00.802Z,3.55
2023-04-18T05:31:29.110Z,3.45
2023-04-18T05:33:55.960Z,3.55
2023-04-18T05:36:25.717Z,3.40
2023-04-18T05:38:52.443Z,3.85
2023-04-18T05:41:19.153Z,3.80
2023-04-18T05:44:04.839Z,4.20
2023-04-18T05:46:34.653Z,4.10
2023-04-18T05:49:04.600Z,3.80
2023-04-18T05:51:31.386Z,4.03
2023-04-18T05:54:04.258Z,4.00
2023-04-18T05:56:31.025Z,3.85
2023-04-18T05:59:00.369Z,3.65
2023-04-18T06:01:28.602Z,3.70
2023-04-18T06:03:58.878Z,4.13
2023-04-18T06:06:33.830Z,4.05
2023-04-18T06:09:00.857Z,4.35
2023-04-18T06:11:27.645Z,3.83
2023-04-18T06:13:54.412Z,3.47
2023-04-18T06:16:25.653Z,4.63
2023-04-18T06:18:55.610Z,4.50
2023-04-18T06:21:28.353Z,4.70
2023-04-18T06:24:12.804Z,4.78
2023-04-18T06:26:42.084Z,9.82
2023-04-18T06:29:19.769Z,5.78
2023-04-18T06:32:13.720Z,5.60
2023-04-18T06:34:47.875Z,4.70
2023-04-18T06:37:19.363Z,4.65
2023-04-18T06:39:46.091Z,7.95
2023-04-18T06:42:23.066Z,5.07
2023-04-18T06:45:13.202Z,4.78
2023-04-18T06:47:42.565Z,4.93
2023-04-18T06:50:10.276Z,4.90
2023-04-18T06:52:56.957Z,5.00
2023-04-18T06:55:34.204Z,5.13
2023-04-18T06:58:12.412Z,5.03
2023-04-18T07:00:39.384Z,5.40
2023-04-18T07:03:07.630Z,6.47
2023-04-18T07:05:49.108Z,5.60
2023-04-18T07:08:24.151Z,6.18
2023-04-18T07:10:57.010Z,6.50
2023-04-18T07:13:23.753Z,6.93
2023-04-18T07:15:53.850Z,6.18
2023-04-18T07:18:38.720Z,7.33
2023-04-18T07:21:07.495Z,6.15
2023-04-18T07:23:41.010Z,7.95
2023-04-18T07:29:04.329Z,7.50
2023-04-18T07:34:26.673Z,8.98
2023-04-18T07:36:56.178Z,8.02
2023-04-18T07:39:28.759Z,9.20
2023-04-18T07:42:06.088Z,8.98
2023-04-18T07:44:36.344Z,8.20
2023-04-18T07:47:08.929Z,9.85
2023-04-18T07:49:40.024Z,8.13
2023-04-18T07:52:08.805Z,9.00
2023-04-18T07:54:41.251Z,8.88
2023-04-18T07:57:08.022Z,8.15
2023-04-18T07:59:46.946Z,8.57
2023-04-18T08:02:18.482Z,8.13
2023-04-18T08:04:51.272Z,9.10
2023-04-18T08:07:18.200Z,8.52
2023-04-18T08:09:44.961Z,8.00
2023-04-18T08:12:11.713Z,8.45
2023-04-18T08:14:41.525Z,8.35
2023-04-18T08:17:11.205Z,8.18
2023-04-18T08:19:40.952Z,8.25
2023-04-18T08:22:11.551Z,6.93
2023-04-18T08:24:39.258Z,7.20
2023-04-18T08:27:11.984Z,6.85
2023-04-18T08:29:56.278Z,8.40
2023-04-18T08:32:24.206Z,9.13
2023-04-18T08:34:50.924Z,6.85
2023-04-18T08:37:17.627Z,5.13
2023-04-18T08:39:48.692Z,6.28
2023-04-18T08:42:18.976Z,5.90
2023-04-18T08:44:47.531Z,6.03
2023-04-18T08:47:15.114Z,5.28
2023-04-18T08:49:46.654Z,6.40
2023-04-18T08:52:14.966Z,6.05
2023-04-18T08:54:45.277Z,5.25
2023-04-18T08:57:18.793Z,5.93
2023-04-18T08:59:48.260Z,4.85
2023-04-18T09:02:23.285Z,4.50
2023-04-18T09:04:53.397Z,4.38
2023-04-18T09:07:28.648Z,5.20
2023-04-18T09:09:57.597Z,5.47
2023-04-18T09:12:27.159Z,5.60
2023-04-18T09:15:18.767Z,5.03
2023-04-18T09:17:47.330Z,5.10
2023-04-18T09:20:39.992Z,4.93
2023-04-18T09:23:27.625Z,5.35
2023-04-18T09:26:01.463Z,4.90
2023-04-18T09:28:41.454Z,4.72
2023-04-18T09:31:10.739Z,5.75
2023-04-18T09:33:48.478Z,5.22
2023-04-18T09:36:26.304Z,5.90
2023-04-18T09:39:04.196Z,6.30
2023-04-18T09:41:37.095Z,6.65
2023-04-18T09:44:21.763Z,6.68
2023-04-18T09:46:49.466Z,6.90
2023-04-18T09:49:27.803Z,6.57
2023-04-18T09:54:39.150Z,7.38
2023-04-18T09:57:17.435Z,7.35
2023-04-18T10:00:13.482Z,7.90
2023-04-18T10:02:47.915Z,8.00
2023-04-18T10:05:23.166Z,7.57
2023-04-18T10:07:50.678Z,6.93
2023-04-18T10:10:22.207Z,6.72
2023-04-18T10:12:55.382Z,6.95
2023-04-18T10:15:25.900Z,7.03
2023-04-18T10:18:04.587Z,6.40
2023-04-18T10:20:33.971Z,6.47
2023-04-18T10:23:31.752Z,5.78
2023-04-18T10:25:59.422Z,4.97
2023-04-18T10:28:32.070Z,5.15
2023-04-18T10:31:01.941Z,5.55
2023-04-18T10:33:43.205Z,5.22
2023-04-18T10:36:09.887Z,5.25
2023-04-18T10:38:37.739Z,5.10
2023-04-18T10:41:22.408Z,4.90
2023-04-18T10:44:08.530Z,4.78
2023-04-18T10:46:42.474Z,4.53
2023-04-18T10:49:53.222Z,4.30
2023-04-18T10:52:20.066Z,4.18
2023-04-18T10:55:10.268Z,4.10
2023-04-18T10:57:47.781Z,3.88
2023-04-18T11:00:17.476Z,3.80
2023-04-18T11:02:56.765Z,3.47
2023-04-18T11:05:32.152Z,3.10
2023-04-18T11:08:01.178Z,3.50
2023-04-18T11:10:32.410Z,3.10
2023-04-18T11:13:05.483Z,3.22
2023-04-18T11:15:39.499Z,2.83
2023-04-18T11:18:06.447Z,3.60
2023-04-18T11:20:46.290Z,3.40
2023-04-18T11:23:25.046Z,3.38
2023-04-18T11:25:55.139Z,3.70
2023-04-18T11:28:22.812Z,3.20
2023-04-18T11:30:52.365Z,3.13
2023-04-18T11:33:19.126Z,3.58
2023-04-18T11:35:46.688Z,3.20
2023-04-18T11:38:24.344Z,3.35
2023-04-18T11:40:56.696Z,3.33
2023-04-18T11:43:25.262Z,3.05
2023-04-18T11:45:59.469Z,2.80
2023-04-18T11:48:47.809Z,3.10
2023-04-18T11:51:35.070Z,3.50
2023-04-18T11:54:02.149Z,3.00
2023-04-18T11:56:29.090Z,3.35
2023-04-18T11:59:01.488Z,3.05
2023-04-18T12:01:29.620Z,3.35
2023-04-18T12:04:17.483Z,3.33
2023-04-18T12:06:52.788Z,3.15
2023-04-18T12:09:31.120Z,3.13
2023-04-18T12:11:58.819Z,3.35
2023-04-18T12:14:46.204Z,2.92
2023-04-18T12:17:13.453Z,3.33
2023-04-18T12:19:49.867Z,3.30
2023-04-18T12:22:20.182Z,3.08
2023-04-18T12:25:10.493Z,3.30
2023-04-18T12:27:58.880Z,2.63
2023-04-18T12:30:42.326Z,2.65
2023-04-18T12:33:11.752Z,2.65
2023-04-18T12:35:39.431Z,2.97
2023-04-18T12:38:18.524Z,3.10
2023-04-18T12:40:49.306Z,2.80
2023-04-18T12:43:16.427Z,3.17
2023-04-18T12:45:48.632Z,2.88
2023-04-18T12:48:15.474Z,2.78
2023-04-18T12:50:42.380Z,3.00
2023-04-18T12:53:19.814Z,2.95
2023-04-18T12:55:46.643Z,2.50
2023-04-18T12:58:21.428Z,2.85
2023-04-18T13:00:54.142Z,2.90
2023-04-18T13:03:32.962Z,2.58
2023-04-18T13:06:02.914Z,2.80
2023-04-18T13:08:29.962Z,2.95
2023-04-18T13:11:08.034Z,3.00
2023-04-18T13:13:37.290Z,2.47
2023-04-18T13:16:07.175Z,2.45
2023-04-18T13:18:33.991Z,2.60
2023-04-18T13:21:06.177Z,2.92
2023-04-18T13:23:38.189Z,2.72
2023-04-18T13:26:07.492Z,2.92
2023-04-18T13:28:34.188Z,2.65
2023-04-18T13:31:03.222Z,3.33
2023-04-18T13:36:14.908Z,2.85
2023-04-18T13:38:42.940Z,2.90
2023-04-18T13:41:14.220Z,2.90
2023-04-18T13:43:50.195Z,3.35
2023-04-18T13:46:19.938Z,3.10
2023-04-18T13:48:51.997Z,3.10
2023-04-18T13:51:18.694Z,3.28
2023-04-18T13:53:45.372Z,2.83
2023-04-18T13:56:15.081Z,2.90
2023-04-18T13:58:41.764Z,3.20
2023-04-18T14:01:14.129Z,3.20
2023-04-18T14:03:43.504Z,3.55
2023-04-18T14:06:33.901Z,3.67
2023-04-18T14:09:02.201Z,4.07
2023-04-18T14:11:37.080Z,3.83
2023-04-18T14:16:55.173Z,3.33
2023-04-18T14:19:27.357Z,3.47
2023-04-18T14:22:00.503Z,3.13
2023-04-18T14:24:33.339Z,3.38
2023-04-18T14:27:04.194Z,2.60
2023-04-18T14:29:38.158Z,2.53
2023-04-18T14:32:06.408Z,2.50
2023-04-18T14:34:43.255Z,2.42
2023-04-18T14:37:09.982Z,2.60
2023-04-18T14:39:56.616Z,2.90
2023-04-18T14:42:25.998Z,2.40
2023-04-18T14:45:06.728Z,2.60
2023-04-18T14:47:33.529Z,2.47
2023-04-18T14:50:03.037Z,2.08
2023-04-18T14:52:32.408Z,2.72
2023-04-18T14:54:59.733Z,2.78
2023-04-18T14:57:29.622Z,2.50
2023-04-18T15:00:03.949Z,2.75
2023-04-18T15:02:30.805Z,2.33
2023-04-18T15:05:02.354Z,2.40
2023-04-18T15:07:29.103Z,3.05
2023-04-18T15:10:01.815Z,3.10
2023-04-18T15:12:29.877Z,2.90
2023-04-18T15:14:56.989Z,2.83
2023-04-18T15:17:29.318Z,3.08
2023-04-18T15:19:59.453Z,2.75
2023-04-18T15:22:30.759Z,2.88
2023-04-18T15:25:00.992Z,2.97
2023-04-18T15:27:28.974Z,3.10
2023-04-18T15:29:55.650Z,3.40
2023-04-18T15:32:26.340Z,2.97
2023-04-18T15:34:54.409Z,2.85
2023-04-18T15:37:23.046Z,2.85
2023-04-18T15:39:49.728Z,2.63
2023-04-18T15:42:20.310Z,2.53
2023-04-18T15:44:49.503Z,3.70
2023-04-18T15:47:16.160Z,2.65
2023-04-18T15:49:43.198Z,3.10
2023-04-18T15:52:14.236Z,2.78
2023-04-18T15:54:41.193Z,2.40
2023-04-18T15:57:11.253Z,2.50
2023-04-18T16:02:30.612Z,2.45
2023-04-18T16:04:57.394Z,2.22
2023-04-18T16:07:24.070Z,2.78
2023-04-18T16:09:50.735Z,2.50
2023-04-18T16:12:20.404Z,2.38
2023-04-18T16:14:47.123Z,2.38
2023-04-18T16:17:13.814Z,2.70
2023-04-18T16:19:40.521Z,2.60
2023-04-18T16:22:07.225Z,2.22
2023-04-18T16:24:33.945Z,1.98
2023-04-18T16:27:09.383Z,2.03
2023-04-18T16:29:36.024Z,2.25
2023-04-18T16:32:07.081Z,2.40
2023-04-18T16:34:36.548Z,2.57
2023-04-18T16:37:07.006Z,2.40
2023-04-18T16:39:37.529Z,2.25
2023-04-18T16:42:17.548Z,2.10
2023-04-18T16:44:48.623Z,2.63
2023-04-18T16:47:29.120Z,2.43
2023-04-18T16:49:55.999Z,2.88
2023-04-18T16:52:22.890Z,2.25
2023-04-18T16:54:51.978Z,2.33
2023-04-18T16:57:19.314Z,2.65
2023-04-18T16:59:45.960Z,2.63
2023-04-18T17:02:27.406Z,2.47
2023-04-18T17:04:57.921Z,2.38
2023-04-18T17:07:39.022Z,2.58
2023-04-18T17:10:10.117Z,2.58
2023-04-18T17:12:41.414Z,2.38
2023-04-18T17:15:11.183Z,2.10
2023-04-18T17:17:52.261Z,2.75
2023-04-18T17:20:22.275Z,2.40
2023-04-18T17:22:49.086Z,2.40
2023-04-18T17:25:20.358Z,2.60
2023-04-18T17:27:49.517Z,2.45
2023-04-18T17:30:20.161Z,2.47
2023-04-18T17:33:05.374Z,2.50
2023-04-18T17:35:34.659Z,2.30
2023-04-18T17:38:08.581Z,2.50
2023-04-18T17:40:35.307Z,2.60
2023-04-18T17:43:02.161Z,2.50
2023-04-18T17:45:30.871Z,2.25
2023-04-18T17:47:58.327Z,2.60
2023-04-18T17:50:29.427Z,2.20
2023-04-18T17:52:56.279Z,2.60
2023-04-18T17:55:23.257Z,2.90
2023-04-18T17:57:49.988Z,2.72
2023-04-18T18:00:20.950Z,2.40
2023-04-18T18:02:47.912Z,2.85
2023-04-18T18:05:19.592Z,2.70
2023-04-18T18:07:54.694Z,3.15
2023-04-18T18:10:22.957Z,2.60
2023-04-18T18:12:53.180Z,2.60
2023-04-18T18:15:24.586Z,2.60
2023-04-18T18:17:54.270Z,2.83
2023-04-18T18:20:23.116Z,2.78
2023-04-18T18:22:52.174Z,2.70
2023-04-18T18:25:18.999Z,2.58
2023-04-18T18:27:50.078Z,2.60
2023-04-18T18:30:27.823Z,2.90
2023-04-18T18:32:54.937Z,2.70
2023-04-18T18:35:25.273Z,2.80
2023-04-18T18:37:55.306Z,3.00
2023-04-18T18:40:22.644Z,3.45
2023-04-18T18:42:56.794Z,3.30
2023-04-18T18:45:38.903Z,3.38
2023-04-18T18:50:36.218Z,3.38
2023-04-18T18:53:08.677Z,3.33
2023-04-18T18:55:55.089Z,4.97
2023-04-18T18:58:34.599Z,4.05
2023-04-18T19:01:01.721Z,5.10
2023-04-18T19:03:29.876Z,5.15
2023-04-18T19:06:03.432Z,4.15
2023-04-18T19:08:44.870Z,4.22
2023-04-18T19:11:11.461Z,4.17
2023-04-18T19:13:38.331Z,4.20
2023-04-18T19:16:08.100Z,4.60
2023-04-18T19:18:34.767Z,4.53
2023-04-18T19:21:02.343Z,4.03
2023-04-18T19:23:29.047Z,4.35
2023-04-18T19:25:58.130Z,4.50
2023-04-18T19:28:28.309Z,4.10
2023-04-18T19:31:08.287Z,4.15
2023-04-18T19:33:35.138Z,4.28
2023-04-18T19:36:01.801Z,4.22
2023-04-18T19:38:28.631Z,4.45
2023-04-18T19:40:55.356Z,4.75
2023-04-18T19:43:22.055Z,5.30
2023-04-18T19:45:52.615Z,5.20
2023-04-18T19:48:27.884Z,4.53
2023-04-18T19:50:56.589Z,4.75
2023-04-18T19:53:23.368Z,4.93
2023-04-18T19:55:55.737Z,5.70
2023-04-18T19:58:40.970Z,4.90
2023-04-18T20:01:20.629Z,6.03
2023-04-18T20:03:48.801Z,6.40
2023-04-18T20:06:24.166Z,5.50
2023-04-18T20:08:50.861Z,5.40
2023-04-18T20:11:20.351Z,5.70
2023-04-18T20:13:47.061Z,6.30
2023-04-18T20:16:13.812Z,6.35
2023-04-18T20:18:41.354Z,6.35
2023-04-18T20:21:09.354Z,6.28
2023-04-18T20:23:49.410Z,6.50
2023-04-18T20:26:18.947Z,6.78
2023-04-18T20:28:45.607Z,6.30
2023-04-18T20:31:15.332Z,6.38
2023-04-18T20:33:42.137Z,6.35
2023-04-18T20:36:12.396Z,6.00
2023-04-18T20:38:39.096Z,6.18
2023-04-18T20:41:06.567Z,6.07
2023-04-18T20:43:37.645Z,5.85
2023-04-18T20:46:04.531Z,5.70
2023-04-18T20:48:36.500Z,5.50
2023-04-18T20:53:42.595Z,5.32
2023-04-18T20:56:09.484Z,5.82
2023-04-18T20:58:43.674Z,5.85
2023-04-18T21:01:10.535Z,5.95
2023-04-18T21:03:46.446Z,6.10
2023-04-18T21:06:18.595Z,5.10
2023-04-18T21:08:48.288Z,5.90
2023-04-18T21:11:20.749Z,5.63
2023-04-18T21:13:47.435Z,5.07
2023-04-18T21:16:14.227Z,5.50
2023-04-18T21:18:44.004Z,5.40
2023-04-18T21:21:10.662Z,5.95
2023-04-18T21:23:44.539Z,5.70
2023-04-18T21:26:12.691Z,6.28
2023-04-18T21:29:12.752Z,5.28
2023-04-18T21:31:51.530Z,4.78
2023-04-18T21:34:18.371Z,4.85
2023-04-18T21:37:14.483Z,5.13
2023-04-18T21:39:50.836Z,5.15
2023-04-18T21:42:20.378Z,4.80
2023-04-18T21:44:47.119Z,5.00
2023-04-18T21:47:24.384Z,4.88
2023-04-18T21:49:58.440Z,4.75
2023-04-18T21:52:29.213Z,5.05
2023-04-18T21:54:59.360Z,4.82
2023-04-18T21:57:35.778Z,5.55
2023-04-18T22:00:05.089Z,4.75
2023-04-18T22:02:35.805Z,5.18
2023-04-18T22:05:03.099Z,4.72
2023-04-18T22:07:35.340Z,5.63
2023-04-18T22:10:16.174Z,5.13
2023-04-18T22:12:46.241Z,5.43
2023-04-18T22:15:16.045Z,5.60
2023-04-18T22:17:49.332Z,5.50
2023-04-18T22:20:25.722Z,5.93
2023-04-18T22:23:01.450Z,6.20
2023-04-18T22:25:31.588Z,5.32
2023-04-18T22:28:11.212Z,5.60
2023-04-18T22:30:50.157Z,5.72
2023-04-18T22:33:17.516Z,5.20
2023-04-18T22:35:44.245Z,5.10
2023-04-18T22:38:10.938Z,4.95
2023-04-18T22:40:40.577Z,5.15
2023-04-18T22:43:12.972Z,5.63
2023-04-18T22:45:45.823Z,5.43
2023-04-18T22:48:12.603Z,5.55
2023-04-18T22:50:48.553Z,5.35
2023-04-18T22:53:18.108Z,5.43
2023-04-18T22:55:49.761Z,5.38
2023-04-18T22:58:19.237Z,5.25
2023-04-18T23:00:46.068Z,4.93
2023-04-18T23:03:16.570Z,5.63
2023-04-18T23:05:43.359Z,5.18
2023-04-18T23:08:10.084Z,5.25
2023-04-18T23:10:44.614Z,5.72
2023-04-18T23:13:14.046Z,5.93
2023-04-18T23:15:43.792Z,5.45
2023-04-18T23:18:13.427Z,4.30
2023-04-18T23:20:48.211Z,4.60
2023-04-18T23:23:15.045Z,4.75
2023-04-18T23:25:41.741Z,4.20
2023-04-18T23:28:11.548Z,3.70
2023-04-18T23:33:20.895Z,3.60
2023-04-18T23:35:54.252Z,3.45
2023-04-18T23:38:29.337Z,4.07
2023-04-18T23:40:59.134Z,3.40
2023-04-18T23:43:25.825Z,3.80
2023-04-18T23:46:03.904Z,3.60
2023-04-18T23:48:39.589Z,3.47
2023-04-18T23:51:07.451Z,3.53
2023-04-18T23:53:36.520Z,3.67
2023-04-18T23:56:09.597Z,3.70
2023-04-18T23:58:40.888Z,3.80
